createdAt,value
2023-05-14T00:01:32.442Z,3.83
2023-05-14T00:04:00.314Z,3.40
2023-05-14T00:06:28.174Z,3.50
2023-05-14T00:08:55.954Z,4.10
2023-05-14T00:11:23.593Z,4.40
2023-05-14T00:13:52.578Z,9.23
2023-05-14T00:16:20.316Z,4.30
2023-05-14T00:18:48.129Z,3.80
2023-05-14T00:21:15.871Z,3.30
2023-05-14T00:23:43.537Z,4.13
2023-05-14T00:26:11.506Z,5.00
2023-05-14T00:28:39.366Z,3.73
2023-05-14T00:31:08.603Z,4.93
2023-05-14T00:33:36.277Z,4.77
2023-05-14T00:36:04.101Z,3.50
2023-05-14T00:38:32.096Z,5.23
2023-05-14T00:40:59.811Z,5.63
2023-05-14T00:43:27.544Z,4.37
2023-05-14T00:45:55.908Z,3.40
2023-05-14T00:48:25.349Z,3.87
2023-05-14T00:50:53.199Z,4.63
2023-05-14T00:53:21.728Z,3.87
2023-05-14T00:55:50.924Z,4.23
2023-05-14T00:58:19.062Z,4.43
2023-05-14T01:00:46.847Z,4.13
2023-05-14T01:03:14.626Z,4.37
2023-05-14T01:05:50.267Z,4.03
2023-05-14T01:08:32.964Z,3.60
2023-05-14T01:11:06.317Z,3.90
2023-05-14T01:13:38.500Z,3.20
2023-05-14T01:16:08.526Z,7.07
2023-05-14T01:18:36.594Z,5.27
2023-05-14T01:21:06.310Z,4.23
2023-05-14T01:23:35.281Z,3.40
2023-05-14T01:26:02.920Z,3.53
2023-05-14T01:28:33.754Z,3.20
2023-05-14T01:31:05.771Z,4.37
2023-05-14T01:33:34.858Z,3.67
2023-05-14T01:36:02.893Z,3.40
2023-05-14T01:38:33.820Z,4.17
2023-05-14T01:41:03.332Z,4.90
2023-05-14T01:43:31.429Z,3.40
2023-05-14T01:45:59.346Z,3.60
2023-05-14T01:48:26.934Z,3.37
2023-05-14T01:50:54.547Z,4.73
2023-05-14T01:53:22.113Z,4.50
2023-05-14T01:55:49.842Z,4.13
2023-05-14T01:58:18.775Z,6.73
2023-05-14T02:00:46.461Z,4.07
2023-05-14T02:03:14.110Z,6.30
2023-05-14T02:05:41.744Z,3.97
2023-05-14T02:08:09.354Z,4.63
2023-05-14T02:10:37.008Z,4.37
2023-05-14T02:13:04.932Z,4.63
2023-05-14T02:15:33.930Z,3.90
2023-05-14T02:18:01.554Z,4.77
2023-05-14T02:20:29.148Z,4.23
2023-05-14T02:22:56.872Z,5.57
2023-05-14T02:25:24.517Z,4.13
2023-05-14T02:27:52.255Z,3.50
2023-05-14T02:30:20.019Z,4.00
2023-05-14T02:32:49.332Z,4.70
2023-05-14T02:35:17.099Z,3.43
2023-05-14T02:37:44.878Z,3.87
2023-05-14T02:40:12.885Z,3.87
2023-05-14T02:42:40.575Z,3.50
2023-05-14T02:45:08.681Z,4.17
2023-05-14T02:47:38.017Z,4.03
2023-05-14T02:50:08.913Z,3.93
2023-05-14T02:52:36.681Z,3.90
2023-05-14T02:55:04.852Z,3.97
2023-05-14T02:57:32.484Z,5.37
2023-05-14T03:00:00.158Z,4.40
2023-05-14T03:02:28.366Z,8.37
2023-05-14T03:04:56.526Z,4.13
2023-05-14T03:07:25.526Z,3.73
2023-05-14T03:09:53.274Z,4.43
2023-05-14T03:12:21.088Z,5.67
2023-05-14T03:14:48.826Z,3.93
2023-05-14T03:17:16.510Z,3.80
2023-05-14T03:19:44.113Z,3.87
2023-05-14T03:22:11.786Z,3.63
2023-05-14T03:24:41.218Z,4.67
2023-05-14T03:27:08.914Z,4.17
2023-05-14T03:29:36.622Z,4.43
2023-05-14T03:32:04.466Z,3.93
2023-05-14T03:34:32.142Z,4.27
2023-05-14T03:36:59.753Z,4.43
2023-05-14T03:39:27.286Z,4.87
2023-05-14T03:41:58.822Z,4.07
2023-05-14T03:44:26.488Z,5.07
2023-05-14T03:46:54.232Z,4.43
2023-05-14T03:49:21.832Z,4.70
2023-05-14T03:51:49.516Z,5.40
2023-05-14T03:54:17.242Z,4.83
2023-05-14T03:56:44.913Z,4.57
2023-05-14T03:59:13.988Z,4.83
2023-05-14T04:01:41.634Z,5.70
2023-05-14T04:04:09.392Z,4.30
2023-05-14T04:06:37.313Z,4.40
2023-05-14T04:09:05.057Z,4.10
2023-05-14T04:11:32.731Z,3.67
2023-05-14T04:14:00.461Z,6.77
2023-05-14T04:16:29.455Z,7.33
2023-05-14T04:18:57.206Z,4.47
2023-05-14T04:21:24.904Z,5.90
2023-05-14T04:23:52.484Z,5.67
2023-05-14T04:26:20.100Z,4.43
2023-05-14T04:28:47.796Z,4.20
2023-05-14T04:31:16.448Z,4.63
2023-05-14T04:33:45.542Z,4.33
2023-05-14T04:36:13.156Z,6.17
2023-05-14T04:38:41.506Z,4.43
2023-05-14T04:41:09.195Z,4.53
2023-05-14T04:43:36.802Z,3.87
2023-05-14T04:46:04.515Z,4.20
2023-05-14T04:48:32.451Z,4.13
2023-05-14T04:51:01.534Z,3.93
2023-05-14T04:53:29.260Z,3.90
2023-05-14T04:55:56.887Z,5.03
2023-05-14T04:58:24.519Z,5.67
2023-05-14T05:00:52.229Z,4.00
2023-05-14T05:03:20.054Z,4.23
2023-05-14T05:05:47.817Z,4.10
2023-05-14T05:08:16.852Z,4.97
2023-05-14T05:10:44.598Z,3.87
2023-05-14T05:13:12.227Z,4.10
2023-05-14T05:15:39.887Z,6.83
2023-05-14T05:18:07.897Z,4.83
2023-05-14T05:20:35.866Z,4.73
2023-05-14T05:23:03.534Z,3.90
2023-05-14T05:25:32.674Z,5.67
2023-05-14T05:28:00.405Z,4.60
2023-05-14T05:30:28.032Z,5.63
2023-05-14T05:32:57.078Z,4.93
2023-05-14T05:35:24.913Z,4.40
2023-05-14T05:37:53.374Z,4.07
2023-05-14T05:40:21.072Z,5.07
2023-05-14T05:42:50.113Z,5.53
2023-05-14T05:45:17.783Z,5.33
2023-05-14T05:47:45.709Z,6.47
2023-05-14T05:50:13.765Z,4.60
2023-05-14T05:52:41.560Z,4.83
2023-05-14T05:55:10.183Z,8.13
2023-05-14T05:57:37.833Z,6.67
2023-05-14T06:00:13.267Z,6.63
2023-05-14T06:02:41.666Z,5.17
2023-05-14T06:05:10.476Z,5.30
2023-05-14T06:07:38.258Z,6.67
2023-05-14T06:10:07.347Z,5.27
2023-05-14T06:12:35.004Z,6.70
2023-05-14T06:15:02.991Z,5.37
2023-05-14T06:17:31.977Z,6.57
2023-05-14T06:19:59.548Z,4.80
2023-05-14T06:22:27.313Z,9.43
2023-05-14T06:24:54.965Z,6.17
2023-05-14T06:27:22.608Z,5.03
2023-05-14T06:29:50.226Z,4.53
2023-05-14T06:32:18.069Z,5.07
2023-05-14T06:34:47.134Z,8.77
2023-05-14T06:37:14.793Z,5.97
2023-05-14T06:39:46.523Z,5.30
2023-05-14T06:42:14.142Z,6.03
2023-05-14T06:44:41.954Z,5.67
2023-05-14T06:47:09.648Z,5.43
2023-05-14T06:49:37.337Z,7.63
2023-05-14T06:52:07.142Z,5.20
2023-05-14T06:54:34.777Z,5.43
2023-05-14T06:57:02.978Z,5.67
2023-05-14T06:59:30.580Z,4.63
2023-05-14T07:01:58.611Z,5.80
2023-05-14T07:04:26.750Z,5.10
2023-05-14T07:06:54.472Z,5.10
2023-05-14T07:09:23.780Z,5.30
2023-05-14T07:11:51.365Z,5.03
2023-05-14T07:14:19.050Z,5.17
2023-05-14T07:16:47.096Z,4.47
2023-05-14T07:19:15.105Z,5.13
2023-05-14T07:21:42.932Z,4.23
2023-05-14T07:24:10.589Z,4.53
2023-05-14T07:26:39.509Z,4.17
2023-05-14T07:29:07.689Z,4.20
2023-05-14T07:31:35.383Z,6.40
2023-05-14T07:34:03.080Z,4.87
2023-05-14T07:36:30.934Z,4.63
2023-05-14T07:38:58.671Z,4.57
2023-05-14T07:41:26.330Z,3.93
2023-05-14T07:43:55.278Z,3.83
2023-05-14T07:46:23.879Z,5.03
2023-05-14T07:48:51.489Z,4.90
2023-05-14T07:51:19.087Z,4.43
2023-05-14T07:53:46.678Z,4.53
2023-05-14T07:56:14.288Z,3.73
2023-05-14T07:58:42.120Z,3.83
2023-05-14T08:01:11.576Z,4.03
2023-05-14T08:03:39.303Z,4.23
2023-05-14T08:06:07.435Z,3.80
2023-05-14T08:08:35.205Z,4.10
2023-05-14T08:11:03.730Z,3.80
2023-05-14T08:13:31.400Z,3.80
2023-05-14T08:15:59.104Z,4.30
2023-05-14T08:18:28.229Z,3.97
2023-05-14T08:20:56.065Z,4.00
2023-05-14T08:23:23.662Z,5.33
2023-05-14T08:25:51.306Z,3.43
2023-05-14T08:28:18.966Z,5.03
2023-05-14T08:30:46.861Z,3.87
2023-05-14T08:33:14.541Z,4.30
2023-05-14T08:35:43.561Z,4.40
2023-05-14T08:38:11.278Z,6.43
2023-05-14T08:40:39.201Z,3.67
2023-05-14T08:43:07.442Z,4.77
2023-05-14T08:45:36.250Z,4.53
2023-05-14T08:48:08.664Z,3.33
2023-05-14T08:50:36.966Z,3.40
2023-05-14T08:53:06.035Z,3.40
2023-05-14T08:55:34.118Z,3.60
2023-05-14T08:58:02.233Z,4.20
2023-05-14T09:00:29.860Z,3.53
2023-05-14T09:02:58.369Z,3.30
2023-05-14T09:05:26.065Z,4.63
2023-05-14T09:07:53.744Z,4.87
2023-05-14T09:10:23.125Z,3.07
2023-05-14T09:12:51.611Z,3.20
2023-05-14T09:15:19.502Z,3.03
2023-05-14T09:17:48.445Z,3.23
2023-05-14T09:20:16.192Z,2.93
2023-05-14T09:22:43.919Z,3.10
2023-05-14T09:25:13.010Z,3.00
2023-05-14T09:27:42.094Z,2.83
2023-05-14T09:30:10.901Z,3.00
2023-05-14T09:32:44.405Z,3.50
2023-05-14T09:35:17.592Z,3.33
2023-05-14T09:37:47.256Z,2.97
2023-05-14T09:40:15.865Z,2.70
2023-05-14T09:42:44.819Z,4.50
2023-05-14T09:45:12.796Z,2.97
2023-05-14T09:47:40.894Z,3.50
2023-05-14T09:50:09.134Z,4.90
2023-05-14T09:52:37.319Z,2.90
2023-05-14T09:55:05.580Z,3.17
2023-05-14T09:57:33.511Z,3.10
2023-05-14T10:00:02.442Z,4.13
2023-05-14T10:02:36.672Z,2.80
2023-05-14T10:05:05.948Z,2.80
2023-05-14T10:07:38.404Z,2.90
2023-05-14T10:10:09.262Z,3.93
2023-05-14T10:12:40.263Z,3.10
2023-05-14T10:15:14.429Z,4.03
2023-05-14T10:17:44.663Z,3.83
2023-05-14T10:20:13.659Z,3.00
2023-05-14T10:22:41.253Z,4.93
2023-05-14T10:25:09.961Z,6.07
2023-05-14T10:27:37.826Z,5.00
2023-05-14T10:30:11.836Z,3.07
2023-05-14T10:32:41.753Z,2.80
2023-05-14T10:35:17.309Z,2.83
2023-05-14T10:37:46.688Z,2.50
2023-05-14T10:40:14.786Z,2.77
2023-05-14T10:42:43.929Z,2.60
2023-05-14T10:45:14.062Z,2.80
2023-05-14T10:47:44.752Z,2.57
2023-05-14T10:50:14.294Z,2.90
2023-05-14T10:52:42.593Z,2.33
2023-05-14T10:55:11.293Z,2.40
2023-05-14T10:57:40.226Z,2.50
2023-05-14T11:00:10.725Z,3.80
2023-05-14T11:02:41.607Z,2.63
2023-05-14T11:05:11.500Z,3.00
2023-05-14T11:07:40.431Z,2.53
2023-05-14T11:10:09.850Z,4.70
2023-05-14T11:12:38.750Z,2.57
2023-05-14T11:15:09.291Z,2.70
2023-05-14T11:17:39.385Z,2.40
2023-05-14T11:20:08.100Z,2.90
2023-05-14T11:22:36.721Z,2.70
2023-05-14T11:25:04.686Z,6.13
2023-05-14T11:27:34.410Z,3.37
2023-05-14T11:30:02.165Z,3.60
2023-05-14T11:32:29.766Z,2.67
2023-05-14T11:34:58.770Z,2.60
2023-05-14T11:37:27.051Z,2.83
2023-05-14T11:39:56.503Z,2.43
2023-05-14T11:42:25.691Z,2.43
2023-05-14T11:44:54.032Z,2.37
2023-05-14T11:47:22.638Z,3.40
2023-05-14T11:49:50.951Z,2.17
2023-05-14T11:52:21.749Z,2.83
2023-05-14T11:54:50.729Z,2.60
2023-05-14T11:57:20.828Z,3.20
2023-05-14T11:59:49.172Z,3.93
2023-05-14T12:02:18.802Z,2.40
2023-05-14T12:04:51.654Z,2.47
2023-05-14T12:07:20.756Z,2.60
2023-05-14T12:09:49.889Z,2.40
2023-05-14T12:12:19.781Z,2.40
2023-05-14T12:14:47.557Z,5.50
2023-05-14T12:17:17.117Z,2.23
2023-05-14T12:19:45.596Z,3.13
2023-05-14T12:22:15.624Z,4.60
2023-05-14T12:24:53.977Z,2.43
2023-05-14T12:27:23.249Z,2.20
2023-05-14T12:29:53.302Z,2.60
2023-05-14T12:32:21.025Z,2.53
2023-05-14T12:34:48.734Z,2.50
2023-05-14T12:37:16.611Z,2.43
2023-05-14T12:39:45.593Z,2.37
2023-05-14T12:42:13.266Z,2.00
2023-05-14T12:44:41.302Z,2.93
2023-05-14T12:47:09.718Z,2.40
2023-05-14T12:49:37.750Z,2.13
2023-05-14T12:52:25.605Z,3.13
2023-05-14T12:54:55.873Z,3.03
2023-05-14T12:57:24.045Z,2.57
2023-05-14T12:59:51.957Z,2.50
2023-05-14T13:02:20.215Z,2.43
2023-05-14T13:04:48.412Z,2.50
2023-05-14T13:07:16.570Z,2.67
2023-05-14T13:09:44.494Z,2.80
2023-05-14T13:12:13.782Z,2.47
2023-05-14T13:14:41.786Z,2.90
2023-05-14T13:17:09.879Z,2.37
2023-05-14T13:19:37.889Z,2.00
2023-05-14T13:22:06.703Z,2.00
2023-05-14T13:24:35.332Z,3.53
2023-05-14T13:27:03.255Z,2.13
2023-05-14T13:29:32.746Z,3.17
2023-05-14T13:32:00.712Z,2.33
2023-05-14T13:34:28.696Z,1.53
2023-05-14T13:36:56.533Z,2.07
2023-05-14T13:39:27.138Z,2.10
2023-05-14T13:41:56.684Z,1.70
2023-05-14T13:44:24.662Z,2.20
2023-05-14T13:46:54.383Z,1.70
2023-05-14T13:49:22.451Z,4.60
2023-05-14T13:51:50.535Z,2.07
2023-05-14T13:54:18.456Z,1.97
2023-05-14T13:56:46.414Z,2.53
2023-05-14T13:59:15.128Z,2.00
2023-05-14T14:01:43.585Z,2.20
2023-05-14T14:04:16.085Z,2.23
2023-05-14T14:06:44.032Z,2.30
2023-05-14T14:09:13.474Z,2.40
2023-05-14T14:11:42.091Z,2.53
2023-05-14T14:14:10.046Z,1.83
2023-05-14T14:16:38.208Z,2.10
2023-05-14T14:19:06.493Z,1.90
2023-05-14T14:21:36.267Z,2.00
2023-05-14T14:24:04.212Z,2.47
2023-05-14T14:26:32.184Z,2.47
2023-05-14T14:29:00.010Z,2.10
2023-05-14T14:31:27.928Z,3.33
2023-05-14T14:33:56.051Z,1.83
2023-05-14T14:36:25.089Z,2.30
2023-05-14T14:38:54.346Z,2.27
2023-05-14T14:41:22.527Z,2.07
2023-05-14T14:43:50.486Z,2.30
2023-05-14T14:46:18.674Z,2.67
2023-05-14T14:48:46.624Z,2.27
2023-05-14T14:51:14.859Z,3.23
2023-05-14T14:53:42.867Z,2.07
2023-05-14T14:56:12.316Z,2.67
2023-05-14T14:58:40.182Z,1.50
2023-05-14T15:01:08.441Z,1.73
2023-05-14T15:03:36.412Z,1.50
2023-05-14T15:06:04.672Z,1.87
2023-05-14T15:08:32.801Z,2.30
2023-05-14T15:11:00.793Z,1.90
2023-05-14T15:13:30.186Z,1.53
2023-05-14T15:15:58.091Z,2.20
2023-05-14T15:18:26.921Z,1.70
2023-05-14T15:20:55.048Z,1.90
2023-05-14T15:23:22.849Z,2.33
2023-05-14T15:25:50.885Z,1.70
2023-05-14T15:28:19.083Z,1.60
2023-05-14T15:30:49.469Z,1.50
2023-05-14T15:33:19.238Z,1.80
2023-05-14T15:35:47.354Z,2.97
2023-05-14T15:38:15.525Z,2.03
2023-05-14T15:40:43.492Z,1.67
2023-05-14T15:43:11.795Z,1.60
2023-05-14T15:45:39.819Z,2.30
2023-05-14T15:48:09.259Z,3.20
2023-05-14T15:50:38.389Z,2.07
2023-05-14T15:53:06.570Z,1.80
2023-05-14T15:55:34.615Z,1.63
2023-05-14T15:58:04.154Z,2.10
2023-05-14T16:00:32.232Z,2.00
2023-05-14T16:03:00.610Z,2.27
2023-05-14T16:05:30.718Z,2.37
2023-05-14T16:07:58.803Z,2.17
2023-05-14T16:10:26.768Z,2.10
2023-05-14T16:12:55.124Z,1.57
2023-05-14T16:15:23.083Z,1.50
2023-05-14T16:17:51.142Z,1.60
2023-05-14T16:20:19.534Z,1.53
2023-05-14T16:22:49.014Z,3.37
2023-05-14T16:25:18.783Z,1.60
2023-05-14T16:27:47.149Z,1.77
2023-05-14T16:30:15.366Z,1.70
2023-05-14T16:32:46.491Z,1.27
2023-05-14T16:35:15.022Z,2.10
2023-05-14T16:37:45.707Z,1.63
2023-05-14T16:40:16.392Z,1.20
2023-05-14T16:42:46.070Z,1.10
2023-05-14T16:45:16.123Z,3.47
2023-05-14T16:47:44.025Z,2.97
2023-05-14T16:50:12.590Z,1.40
2023-05-14T16:52:40.470Z,2.80
2023-05-14T16:55:09.263Z,1.33
2023-05-14T16:57:38.587Z,2.37
2023-05-14T17:00:09.627Z,3.50
2023-05-14T17:02:38.405Z,1.77
2023-05-14T17:05:07.940Z,1.63
2023-05-14T17:07:38.418Z,2.83
2023-05-14T17:10:07.610Z,2.37
2023-05-14T17:12:35.956Z,1.43
2023-05-14T17:15:06.578Z,2.73
2023-05-14T17:17:34.605Z,10.40
2023-05-14T17:20:03.405Z,1.73
2023-05-14T17:22:32.246Z,2.10
2023-05-14T17:25:00.444Z,1.57
2023-05-14T17:27:29.337Z,1.50
2023-05-14T17:29:57.384Z,2.73
2023-05-14T17:32:27.075Z,1.87
2023-05-14T17:34:54.724Z,1.53
2023-05-14T17:37:22.476Z,2.83
2023-05-14T17:39:50.600Z,2.50
2023-05-14T17:42:18.669Z,1.60
2023-05-14T17:44:46.774Z,1.97
2023-05-14T17:47:16.072Z,2.00
2023-05-14T17:49:45.116Z,1.80
2023-05-14T17:52:12.714Z,3.00
2023-05-14T17:54:41.758Z,3.67
2023-05-14T17:57:09.474Z,2.27
2023-05-14T17:59:37.203Z,2.00
2023-05-14T18:02:05.602Z,1.80
2023-05-14T18:04:33.800Z,1.80
2023-05-14T18:07:03.262Z,1.83
2023-05-14T18:09:31.255Z,3.10
2023-05-14T18:11:59.333Z,1.60
2023-05-14T18:14:27.477Z,3.13
2023-05-14T18:16:55.939Z,2.00
2023-05-14T18:19:23.939Z,1.50
2023-05-14T18:21:52.080Z,1.60
2023-05-14T18:24:22.510Z,1.37
2023-05-14T18:26:51.397Z,1.70
2023-05-14T18:29:19.468Z,2.43
2023-05-14T18:31:47.525Z,1.93
2023-05-14T18:34:15.708Z,1.53
2023-05-14T18:36:43.793Z,1.73
2023-05-14T18:39:12.081Z,1.47
2023-05-14T18:41:41.388Z,2.70
2023-05-14T18:44:09.292Z,1.60
2023-05-14T18:46:37.319Z,1.47
2023-05-14T18:49:07.004Z,4.80
2023-05-14T18:51:35.027Z,1.53
2023-05-14T18:54:03.353Z,1.73
2023-05-14T18:56:31.313Z,1.50
2023-05-14T18:59:00.669Z,1.43
2023-05-14T19:01:28.689Z,1.40
2023-05-14T19:03:56.586Z,1.87
2023-05-14T19:06:24.905Z,2.00
2023-05-14T19:08:52.743Z,1.53
2023-05-14T19:11:20.633Z,1.37
2023-05-14T19:13:49.591Z,1.47
2023-05-14T19:16:18.816Z,1.20
2023-05-14T19:18:46.846Z,1.57
2023-05-14T19:21:15.914Z,3.33
2023-05-14T19:23:43.830Z,1.77
2023-05-14T19:26:11.758Z,4.30
2023-05-14T19:28:39.805Z,1.23
2023-05-14T19:31:08.268Z,1.33
2023-05-14T19:33:37.755Z,1.60
2023-05-14T19:36:06.488Z,5.60
2023-05-14T19:38:34.124Z,2.03
2023-05-14T19:41:02.163Z,1.63
2023-05-14T19:43:30.151Z,1.40
2023-05-14T19:46:01.106Z,1.60
2023-05-14T19:48:29.803Z,2.07
2023-05-14T19:50:59.257Z,1.57
2023-05-14T19:53:29.934Z,1.50
2023-05-14T19:55:58.169Z,2.73
2023-05-14T19:58:26.764Z,1.63
2023-05-14T20:00:57.416Z,1.87
2023-05-14T20:03:26.690Z,3.43
2023-05-14T20:05:55.207Z,2.40
2023-05-14T20:08:24.988Z,2.77
2023-05-14T20:10:54.716Z,2.07
2023-05-14T20:13:24.985Z,1.83
2023-05-14T20:15:55.167Z,2.23
2023-05-14T20:18:23.339Z,2.03
2023-05-14T20:20:51.055Z,2.73
2023-05-14T20:23:18.684Z,3.73
2023-05-14T20:25:47.630Z,4.23
2023-05-14T20:28:15.250Z,2.40
2023-05-14T20:30:42.870Z,2.80
2023-05-14T20:33:10.704Z,1.70
2023-05-14T20:35:38.488Z,2.03
2023-05-14T20:38:06.169Z,2.20
2023-05-14T20:40:33.781Z,2.20
2023-05-14T20:43:02.909Z,1.93
2023-05-14T20:45:30.543Z,1.80
2023-05-14T20:47:58.252Z,2.70
2023-05-14T20:50:27.119Z,1.70
2023-05-14T20:52:56.158Z,2.03
2023-05-14T20:55:24.095Z,3.47
2023-05-14T20:57:51.859Z,3.50
2023-05-14T21:00:21.240Z,2.13
2023-05-14T21:02:49.192Z,1.80
2023-05-14T21:05:17.884Z,2.17
2023-05-14T21:07:45.468Z,2.10
2023-05-14T21:10:13.253Z,1.67
2023-05-14T21:12:42.109Z,1.70
2023-05-14T21:15:11.697Z,1.70
2023-05-14T21:17:40.799Z,2.33
2023-05-14T21:20:09.418Z,2.43
2023-05-14T21:22:37.141Z,1.67
2023-05-14T21:25:05.457Z,2.10
2023-05-14T21:27:33.080Z,1.70
2023-05-14T21:30:00.895Z,1.83
2023-05-14T21:32:28.591Z,1.90
2023-05-14T21:34:57.654Z,1.63
2023-05-14T21:37:25.278Z,2.00
2023-05-14T21:39:52.906Z,1.80
2023-05-14T21:42:21.118Z,1.80
2023-05-14T21:44:48.845Z,1.80
2023-05-14T21:47:16.555Z,2.07
2023-05-14T21:49:44.432Z,3.00
2023-05-14T21:52:13.404Z,1.87
2023-05-14T21:54:41.075Z,2.10
2023-05-14T21:57:11.185Z,2.60
2023-05-14T21:59:38.830Z,2.23
2023-05-14T22:02:07.946Z,2.50
2023-05-14T22:04:36.125Z,2.57
2023-05-14T22:07:04.034Z,2.50
2023-05-14T22:09:32.941Z,1.53
2023-05-14T22:12:00.756Z,1.87
2023-05-14T22:14:28.485Z,2.53
2023-05-14T22:16:56.169Z,2.23
2023-05-14T22:19:23.783Z,1.80
2023-05-14T22:21:51.357Z,2.27
2023-05-14T22:24:19.875Z,4.13
2023-05-14T22:26:48.981Z,3.50
2023-05-14T22:29:16.562Z,1.80
2023-05-14T22:31:44.226Z,1.70
2023-05-14T22:34:11.842Z,2.40
2023-05-14T22:36:39.437Z,1.70
2023-05-14T22:39:07.079Z,1.83
2023-05-14T22:41:34.672Z,1.90
2023-05-14T22:44:03.668Z,1.50
2023-05-14T22:46:31.304Z,2.73
2023-05-14T22:48:59.977Z,2.47
2023-05-14T22:51:27.926Z,2.07
2023-05-14T22:53:55.594Z,2.00
2023-05-14T22:56:23.338Z,2.00
2023-05-14T22:58:51.423Z,2.30
2023-05-14T23:01:22.509Z,2.53
2023-05-14T23:03:50.345Z,1.87
2023-05-14T23:06:17.967Z,2.20
2023-05-14T23:08:45.677Z,4.60
2023-05-14T23:11:13.338Z,2.63
2023-05-14T23:13:41.043Z,2.20
2023-05-14T23:16:08.714Z,2.03
2023-05-14T23:18:37.849Z,2.17
2023-05-14T23:21:05.598Z,2.73
2023-05-14T23:23:33.253Z,3.20
2023-05-14T23:26:00.908Z,2.30
2023-05-14T23:28:28.577Z,1.93
2023-05-14T23:30:56.479Z,1.97
2023-05-14T23:33:24.094Z,5.70
2023-05-14T23:35:53.118Z,2.33
2023-05-14T23:38:20.962Z,2.30
2023-05-14T23:40:48.565Z,2.00
2023-05-14T23:43:16.272Z,2.47
2023-05-14T23:45:43.959Z,2.30
2023-05-14T23:48:11.582Z,2.33
2023-05-14T23:50:39.148Z,3.20
2023-05-14T23:53:08.162Z,2.33
2023-05-14T23:55:35.908Z,2.70
2023-05-14T23:58:03.528Z,3.17
